Time;durP1;ratioP1;P1;durP2;ratioP2;P2;SDS_P1;SDS_P2;PMS_P1;PMS_P2;Temp;Humidity;BMP_temperature;BMP_pressure;BME280_temperature;BME280_humidity;BME280_pressure;Samples;Min_cycle;Max_cycle;Signal;HPM_P1;HPM_P2
2022/06/13 00:00:56;;;;;;;6.05;1.60;;;;;;;;;;5047228;28;20057;-66
2022/06/13 00:03:23;;;;;;;3.58;1.58;;;;;;;;;;5046088;28;20133;-66
2022/06/13 00:05:49;;;;;;;3.55;1.35;;;;;;;;;;5044957;28;20121;-64
2022/06/13 00:08:16;;;;;;;7.35;4.15;;;;;;;;;;5046459;28;20041;-65
2022/06/13 00:10:42;;;;;;;2.92;0.93;;;;;;;;;;5044195;28;20071;-66
2022/06/13 00:13:09;;;;;;;4.43;1.55;;;;;;;;;;5047570;28;20037;-66
2022/06/13 00:15:36;;;;;;;5.80;3.38;;;;;;;;;;5044955;28;20139;-65
2022/06/13 00:18:03;;;;;;;12.27;11.07;;;;;;;;;;5045359;28;20461;-65
2022/06/13 00:20:30;;;;;;;12.48;8.07;;;;;;;;;;5044992;28;20037;-65
2022/06/13 00:22:56;;;;;;;4.97;1.20;;;;;;;;;;5047337;28;20094;-65
2022/06/13 00:25:23;;;;;;;5.38;1.63;;;;;;;;;;5045005;28;20142;-65
2022/06/13 00:27:50;;;;;;;2.53;0.70;;;;;;;;;;5031120;28;20056;-65
2022/06/13 00:30:16;;;;;;;2.92;0.80;;;;;;;;;;5043949;28;20127;-65
2022/06/13 00:32:43;;;;;;;2.20;0.63;;;;;;;;;;5044621;28;20355;-65
2022/06/13 00:35:10;;;;;;;3.03;0.57;;;;;;;;;;5044391;28;20044;-66
2022/06/13 00:37:36;;;;;;;3.30;0.70;;;;;;;;;;5045143;28;20037;-65
2022/06/13 00:40:04;;;;;;;2.90;0.80;;;;;;;;;;5044579;28;20043;-65
2022/06/13 00:42:32;;;;;;;2.75;0.80;;;;;;;;;;5045154;28;20532;-66
2022/06/13 00:45:17;;;;;;;2.55;0.60;;;;;;;;;;5044959;28;20131;-65
2022/06/13 00:47:45;;;;;;;1.52;0.50;;;;;;;;;;5046814;28;20033;-65
2022/06/13 00:50:15;;;;;;;3.08;1.00;;;;;;;;;;5044084;28;20068;-65
2022/06/13 00:53:05;;;;;;;2.30;0.80;;;;;;;;;;5027725;28;20076;-63
2022/06/13 00:55:37;;;;;;;1.40;0.50;;;;;;;;;;5033473;28;20043;-62
2022/06/13 00:58:05;;;;;;;2.50;0.65;;;;;;;;;;5046790;28;20408;-62
2022/06/13 01:00:33;;;;;;;3.75;1.13;;;;;;;;;;5045677;28;20116;-63
2022/06/13 01:03:01;;;;;;;2.00;0.60;;;;;;;;;;5045127;28;20447;-65
2022/06/13 01:05:29;;;;;;;1.95;0.60;;;;;;;;;;5026220;28;20045;-65
2022/06/13 01:07:59;;;;;;;4.50;0.65;;;;;;;;;;5032675;28;20574;-65
2022/06/13 01:13:12;;;;;;;1.90;0.50;;;;;;;;;;5044521;28;20056;-65
2022/06/13 01:16:08;;;;;;;2.75;0.60;;;;;;;;;;5043147;28;20127;-66
2022/06/13 01:18:44;;;;;;;1.88;0.63;;;;;;;;;;4986133;28;20133;-66
2022/06/13 01:21:28;;;;;;;2.53;0.60;;;;;;;;;;5045467;28;20118;-65
2022/06/13 01:24:04;;;;;;;2.25;0.68;;;;;;;;;;5044437;28;20160;-65
2022/06/13 01:26:41;;;;;;;2.42;0.70;;;;;;;;;;5044251;28;20049;-64
2022/06/13 01:29:13;;;;;;;2.65;0.82;;;;;;;;;;5044922;28;20045;-65
2022/06/13 01:31:54;;;;;;;3.13;0.95;;;;;;;;;;5043443;28;20036;-62
2022/06/13 01:34:33;;;;;;;2.42;0.68;;;;;;;;;;5041607;28;20703;-62
2022/06/13 01:37:09;;;;;;;5.47;0.90;;;;;;;;;;5043420;28;20041;-62
2022/06/13 01:39:42;;;;;;;3.03;0.88;;;;;;;;;;5043077;28;20098;-62
2022/06/13 01:42:11;;;;;;;10.05;1.02;;;;;;;;;;5042965;28;20040;-62
2022/06/13 01:44:45;;;;;;;2.30;0.80;;;;;;;;;;5041259;28;20045;-64
2022/06/13 01:47:23;;;;;;;3.20;1.00;;;;;;;;;;5043875;28;20168;-61
2022/06/13 01:49:53;;;;;;;4.32;0.90;;;;;;;;;;5025241;28;20056;-63
2022/06/13 01:52:23;;;;;;;4.07;0.98;;;;;;;;;;5044695;28;20045;-62
2022/06/13 01:55:01;;;;;;;2.60;0.88;;;;;;;;;;5041843;28;20041;-63
2022/06/13 01:57:44;;;;;;;2.38;0.80;;;;;;;;;;5043019;28;20432;-62
2022/06/13 02:00:12;;;;;;;3.15;0.90;;;;;;;;;;5044030;28;20048;-61
2022/06/13 02:02:39;;;;;;;2.67;0.80;;;;;;;;;;5043616;28;20136;-62
2022/06/13 02:05:12;;;;;;;2.90;1.02;;;;;;;;;;5042602;28;20370;-62
2022/06/13 02:07:42;;;;;;;2.72;0.90;;;;;;;;;;5042415;28;20037;-61
2022/06/13 02:10:20;;;;;;;3.38;0.98;;;;;;;;;;5043476;28;20512;-62
2022/06/13 02:12:49;;;;;;;3.08;1.02;;;;;;;;;;5028132;28;20032;-63
2022/06/13 02:15:16;;;;;;;2.85;0.80;;;;;;;;;;5043234;28;20638;-65
2022/06/13 02:17:55;;;;;;;2.97;0.88;;;;;;;;;;5042847;28;20069;-62
2022/06/13 02:20:24;;;;;;;4.32;1.00;;;;;;;;;;5041636;28;20075;-63
2022/06/13 02:22:59;;;;;;;2.58;0.90;;;;;;;;;;5042817;28;20770;-59
2022/06/13 02:25:32;;;;;;;3.50;0.90;;;;;;;;;;5041099;28;20090;-60
2022/06/13 02:28:11;;;;;;;2.60;0.90;;;;;;;;;;5043864;28;20516;-60
2022/06/13 02:30:44;;;;;;;5.35;1.10;;;;;;;;;;5040978;28;20132;-58
2022/06/13 02:33:21;;;;;;;2.55;0.90;;;;;;;;;;5043148;28;20068;-60
2022/06/13 02:35:56;;;;;;;3.42;1.00;;;;;;;;;;5041015;28;20080;-61
2022/06/13 02:38:24;;;;;;;3.65;0.80;;;;;;;;;;5042817;28;20033;-63
2022/06/13 02:40:57;;;;;;;3.35;1.23;;;;;;;;;;5043079;28;20652;-66
2022/06/13 02:43:50;;;;;;;2.97;1.05;;;;;;;;;;5044371;28;20518;-61
2022/06/13 02:46:23;;;;;;;3.95;1.10;;;;;;;;;;5024308;28;20051;-61
2022/06/13 02:48:53;;;;;;;4.10;1.10;;;;;;;;;;5045816;28;20090;-61
2022/06/13 02:51:33;;;;;;;4.00;0.93;;;;;;;;;;5047558;28;20045;-61
2022/06/13 02:54:05;;;;;;;4.88;0.90;;;;;;;;;;5045956;28;20462;-61
2022/06/13 02:59:44;;;;;;;3.22;1.10;;;;;;;;;;5044500;28;20082;-62
2022/06/13 03:02:13;;;;;;;2.92;0.90;;;;;;;;;;5046890;28;20406;-62
2022/06/13 03:04:43;;;;;;;2.75;0.88;;;;;;;;;;5026566;28;20124;-61
2022/06/13 03:07:15;;;;;;;2.80;0.80;;;;;;;;;;5045275;28;20436;-62
2022/06/13 03:09:54;;;;;;;2.75;0.88;;;;;;;;;;5045249;28;21047;-63
2022/06/13 03:12:29;;;;;;;3.53;1.02;;;;;;;;;;5046396;28;20045;-62
2022/06/13 03:15:07;;;;;;;5.60;0.90;;;;;;;;;;5045725;28;20140;-62
2022/06/13 03:17:38;;;;;;;2.35;0.80;;;;;;;;;;5045264;28;20127;-62
2022/06/13 03:20:15;;;;;;;2.40;0.80;;;;;;;;;;5047249;28;20841;-61
2022/06/13 03:22:47;;;;;;;2.60;0.90;;;;;;;;;;5045311;28;20138;-61
2022/06/13 03:25:32;;;;;;;3.53;0.90;;;;;;;;;;5044968;28;20052;-61
2022/06/13 03:27:59;;;;;;;2.92;0.85;;;;;;;;;;5045534;28;20128;-62
2022/06/13 03:30:28;;;;;;;2.33;0.70;;;;;;;;;;5045249;28;20032;-62
2022/06/13 03:35:44;;;;;;;4.35;1.23;;;;;;;;;;5046068;28;20088;-60
2022/06/13 03:38:13;;;;;;;2.90;1.02;;;;;;;;;;5045728;28;20051;-60
2022/06/13 03:40:41;;;;;;;5.90;1.20;;;;;;;;;;5025222;28;20457;-61
2022/06/13 03:43:15;;;;;;;2.30;0.70;;;;;;;;;;5040669;28;20121;-60
2022/06/13 03:45:41;;;;;;;;;;;;;;;;;;5036436;28;20102;-60
2022/06/13 03:48:13;;;;;;;2.88;1.10;;;;;;;;;;5045445;28;20500;-59
2022/06/13 03:51:09;;;;;;;2.55;0.90;;;;;;;;;;5043958;28;20053;-60
2022/06/13 03:53:39;;;;;;;5.07;1.15;;;;;;;;;;5032225;28;20127;-59
2022/06/13 03:56:19;;;;;;;3.45;1.23;;;;;;;;;;5045769;28;20050;-59
2022/06/13 03:58:50;;;;;;;3.00;1.00;;;;;;;;;;5044698;28;20097;-59
2022/06/13 04:01:37;;;;;;;2.90;0.90;;;;;;;;;;5046082;28;20476;-58
2022/06/13 04:04:04;;;;;;;2.85;1.08;;;;;;;;;;5042678;28;20496;-59
2022/06/13 04:06:34;;;;;;;2.35;0.75;;;;;;;;;;5044286;28;20063;-60
2022/06/13 04:09:06;;;;;;;3.25;0.90;;;;;;;;;;5044982;28;20036;-59
2022/06/13 04:11:48;;;;;;;2.42;0.80;;;;;;;;;;5043471;28;20052;-60
2022/06/13 04:14:14;;;;;;;2.22;0.73;;;;;;;;;;5044296;28;20180;-60
2022/06/13 04:16:44;;;;;;;2.97;0.80;;;;;;;;;;5043107;28;20073;-60
2022/06/13 04:19:26;;;;;;;1.83;0.60;;;;;;;;;;5044861;28;20445;-58
2022/06/13 04:22:07;;;;;;;3.13;0.80;;;;;;;;;;5043648;28;20049;-60
2022/06/13 04:24:41;;;;;;;2.17;0.68;;;;;;;;;;5042209;28;20147;-59
2022/06/13 04:27:08;;;;;;;2.15;0.63;;;;;;;;;;5044605;28;20915;-60
2022/06/13 04:29:53;;;;;;;2.15;0.70;;;;;;;;;;5042095;28;20033;-60
2022/06/13 04:32:23;;;;;;;2.80;0.77;;;;;;;;;;5044438;28;20090;-60
2022/06/13 04:34:51;;;;;;;2.40;0.70;;;;;;;;;;5043527;28;20482;-60
2022/06/13 04:37:18;;;;;;;2.45;0.80;;;;;;;;;;5044666;28;20038;-60
2022/06/13 04:39:47;;;;;;;2.15;0.77;;;;;;;;;;5043655;28;20691;-60
2022/06/13 04:42:15;;;;;;;2.58;0.70;;;;;;;;;;5044513;28;20092;-59
2022/06/13 04:44:42;;;;;;;2.25;0.80;;;;;;;;;;5043300;28;20802;-60
2022/06/13 04:47:12;;;;;;;2.72;0.95;;;;;;;;;;5044121;28;20033;-60
2022/06/13 04:49:57;;;;;;;2.83;0.80;;;;;;;;;;5043491;28;20554;-60
2022/06/13 04:52:29;;;;;;;2.28;0.77;;;;;;;;;;5041423;28;20033;-60
2022/06/13 04:55:07;;;;;;;3.15;1.00;;;;;;;;;;5044399;28;20133;-61
2022/06/13 04:57:34;;;;;;;2.30;0.75;;;;;;;;;;5043316;28;20090;-60
2022/06/13 05:00:03;;;;;;;4.47;1.10;;;;;;;;;;5044597;28;20051;-60
2022/06/13 05:02:46;;;;;;;2.10;0.70;;;;;;;;;;5043436;28;20045;-60
2022/06/13 05:05:28;;;;;;;4.57;0.77;;;;;;;;;;5025872;28;20079;-60
2022/06/13 05:07:55;;;;;;;2.30;0.60;;;;;;;;;;5043523;28;20048;-60
2022/06/13 05:10:23;;;;;;;2.67;0.77;;;;;;;;;;5043217;28;20556;-60
2022/06/13 05:12:50;;;;;;;3.03;0.88;;;;;;;;;;5044090;28;20049;-60
2022/06/13 05:15:32;;;;;;;2.60;0.80;;;;;;;;;;5044165;28;20041;-61
2022/06/13 05:18:13;;;;;;;3.00;1.00;;;;;;;;;;5043392;28;20044;-62
2022/06/13 05:20:43;;;;;;;2.50;0.80;;;;;;;;;;5024173;28;20391;-62
2022/06/13 05:23:26;;;;;;;2.60;0.95;;;;;;;;;;5043295;28;20202;-61
2022/06/13 05:25:56;;;;;;;2.10;0.73;;;;;;;;;;5043237;28;20854;-61
2022/06/13 05:28:26;;;;;;;2.75;0.88;;;;;;;;;;5042968;28;20493;-62
2022/06/13 05:30:54;;;;;;;2.75;0.90;;;;;;;;;;5027048;28;20155;-62
2022/06/13 05:33:26;;;;;;;2.88;0.80;;;;;;;;;;5042147;28;20505;-63
2022/06/13 05:35:55;;;;;;;3.40;1.33;;;;;;;;;;5042193;28;20097;-62
2022/06/13 05:38:32;;;;;;;5.13;1.83;;;;;;;;;;5042556;28;20685;-61
2022/06/13 05:40:59;;;;;;;4.07;1.85;;;;;;;;;;5042115;28;20087;-61
2022/06/13 05:43:25;;;;;;;3.80;1.65;;;;;;;;;;5041425;28;20058;-61
2022/06/13 05:45:52;;;;;;;3.72;1.65;;;;;;;;;;5042951;28;20466;-61
2022/06/13 05:48:21;;;;;;;3.30;1.63;;;;;;;;;;5044923;28;20052;-60
2022/06/13 05:50:47;;;;;;;6.63;1.60;;;;;;;;;;5043909;28;20037;-61
2022/06/13 05:53:15;;;;;;;3.78;1.95;;;;;;;;;;5044549;28;20122;-61
2022/06/13 05:55:43;;;;;;;3.72;2.13;;;;;;;;;;5044167;28;20999;-60
2022/06/13 05:58:13;;;;;;;4.55;2.17;;;;;;;;;;5043382;28;20068;-62
2022/06/13 06:00:45;;;;;;;3.95;2.28;;;;;;;;;;5043110;28;20065;-61
2022/06/13 06:03:12;;;;;;;4.35;2.10;;;;;;;;;;5045301;28;20045;-61
2022/06/13 06:05:39;;;;;;;4.15;2.28;;;;;;;;;;5042911;28;20421;-61
2022/06/13 06:08:07;;;;;;;3.95;2.40;;;;;;;;;;5045156;28;20036;-60
2022/06/13 06:10:36;;;;;;;3.72;2.30;;;;;;;;;;5029290;28;20093;-60
2022/06/13 06:13:04;;;;;;;5.35;2.20;;;;;;;;;;5045072;28;20123;-61
2022/06/13 06:15:30;;;;;;;5.25;2.55;;;;;;;;;;5044594;28;20056;-62
2022/06/13 06:17:57;;;;;;;3.80;2.20;;;;;;;;;;5044846;28;20037;-61
2022/06/13 06:20:24;;;;;;;3.58;2.20;;;;;;;;;;5043428;28;20032;-62
2022/06/13 06:22:50;;;;;;;4.03;2.20;;;;;;;;;;5045894;28;20163;-62
2022/06/13 06:25:17;;;;;;;3.67;2.10;;;;;;;;;;5043736;28;20041;-62
2022/06/13 06:27:44;;;;;;;3.67;2.00;;;;;;;;;;5044953;28;20028;-63
2022/06/13 06:30:12;;;;;;;4.18;2.10;;;;;;;;;;5043939;28;20150;-62
2022/06/13 06:32:38;;;;;;;3.70;1.58;;;;;;;;;;5044297;28;20119;-62
2022/06/13 06:35:06;;;;;;;3.40;1.90;;;;;;;;;;5045512;28;20070;-61
2022/06/13 06:37:33;;;;;;;3.72;1.85;;;;;;;;;;5044624;28;20049;-62
2022/06/13 06:39:59;;;;;;;3.78;2.08;;;;;;;;;;5045820;28;20043;-62
2022/06/13 06:42:26;;;;;;;3.97;2.20;;;;;;;;;;5045239;28;20033;-62
2022/06/13 06:44:53;;;;;;;4.57;2.30;;;;;;;;;;5043874;28;20503;-61
2022/06/13 06:47:19;;;;;;;3.50;1.90;;;;;;;;;;5044161;28;20060;-62
2022/06/13 06:49:47;;;;;;;5.53;2.15;;;;;;;;;;5045256;28;20040;-62
2022/06/13 06:52:14;;;;;;;4.35;2.20;;;;;;;;;;5044682;28;20036;-62
2022/06/13 07:00:17;;;;;;;7.75;2.05;;;;;;;;;;5046183;28;20528;-62
2022/06/13 07:02:44;;;;;;;3.72;1.95;;;;;;;;;;5036787;28;20077;-62
2022/06/13 07:05:11;;;;;;;3.67;1.83;;;;;;;;;;5045671;28;20064;-61
2022/06/13 07:07:38;;;;;;;3.88;2.08;;;;;;;;;;5044585;28;20037;-62
2022/06/13 07:10:05;;;;;;;3.78;1.92;;;;;;;;;;5044374;28;20051;-62
2022/06/13 07:12:31;;;;;;;4.03;1.90;;;;;;;;;;5043008;28;20547;-61
2022/06/13 07:14:58;;;;;;;3.92;2.03;;;;;;;;;;5044276;28;20040;-61
2022/06/13 07:17:26;;;;;;;3.50;1.80;;;;;;;;;;5044773;28;20132;-62
2022/06/13 07:19:52;;;;;;;3.92;1.90;;;;;;;;;;5044631;28;20055;-61
2022/06/13 07:22:22;;;;;;;3.88;1.73;;;;;;;;;;5044716;28;20041;-61
2022/06/13 07:24:49;;;;;;;3.90;2.00;;;;;;;;;;5044298;28;20091;-63
2022/06/13 07:27:16;;;;;;;4.65;2.00;;;;;;;;;;5044540;28;20087;-61
2022/06/13 07:29:43;;;;;;;4.00;2.28;;;;;;;;;;5045576;28;20044;-61
2022/06/13 07:32:09;;;;;;;3.85;2.10;;;;;;;;;;5046198;28;20124;-61
2022/06/13 07:34:37;;;;;;;3.78;1.90;;;;;;;;;;5044306;28;20069;-61
2022/06/13 07:37:04;;;;;;;4.38;2.10;;;;;;;;;;5046665;28;20036;-62
2022/06/13 07:39:31;;;;;;;4.60;1.85;;;;;;;;;;5044630;28;20111;-61
2022/06/13 07:41:58;;;;;;;4.55;2.13;;;;;;;;;;5047483;28;20045;-62
2022/06/13 07:44:29;;;;;;;3.53;1.98;;;;;;;;;;5046528;28;20053;-62
2022/06/13 07:46:56;;;;;;;3.78;2.30;;;;;;;;;;5045738;28;20509;-61
2022/06/13 07:49:23;;;;;;;5.30;2.03;;;;;;;;;;5045098;28;20048;-63
2022/06/13 07:51:50;;;;;;;3.40;1.80;;;;;;;;;;5045802;28;20087;-62
2022/06/13 07:54:16;;;;;;;5.93;2.05;;;;;;;;;;5044269;28;20040;-62
2022/06/13 07:56:44;;;;;;;5.38;2.03;;;;;;;;;;5045957;28;20037;-62
2022/06/13 07:59:20;;;;;;;4.35;2.22;;;;;;;;;;5046977;28;20028;-61
2022/06/13 08:01:46;;;;;;;4.10;2.10;;;;;;;;;;5045030;28;20075;-62
2022/06/13 08:04:13;;;;;;;4.07;2.33;;;;;;;;;;5044389;28;20187;-61
2022/06/13 08:06:42;;;;;;;3.58;1.67;;;;;;;;;;5045669;28;20040;-62
2022/06/13 08:09:10;;;;;;;4.97;2.30;;;;;;;;;;5044998;28;20044;-61
2022/06/13 08:11:38;;;;;;;3.90;2.05;;;;;;;;;;5045488;28;20045;-62
2022/06/13 08:14:08;;;;;;;4.03;2.10;;;;;;;;;;5044773;28;20092;-60
2022/06/13 08:16:34;;;;;;;6.45;2.10;;;;;;;;;;5045387;28;20068;-60
2022/06/13 08:19:05;;;;;;;3.60;2.10;;;;;;;;;;5044381;28;20766;-61
2022/06/13 08:21:33;;;;;;;4.07;2.13;;;;;;;;;;5044303;28;20037;-61
2022/06/13 08:23:59;;;;;;;4.53;2.00;;;;;;;;;;5045252;28;20470;-60
2022/06/13 08:26:27;;;;;;;4.28;2.35;;;;;;;;;;5047206;28;20044;-61
2022/06/13 08:28:54;;;;;;;4.30;2.40;;;;;;;;;;5048988;28;20502;-62
2022/06/13 08:31:22;;;;;;;4.45;2.22;;;;;;;;;;5047872;28;21248;-62
2022/06/13 08:33:49;;;;;;;5.13;2.50;;;;;;;;;;5048287;28;20525;-61
2022/06/13 08:36:15;;;;;;;4.20;2.35;;;;;;;;;;5047010;28;20593;-62
2022/06/13 08:38:42;;;;;;;3.90;2.33;;;;;;;;;;5046691;28;20041;-61
2022/06/13 08:41:15;;;;;;;3.70;2.00;;;;;;;;;;5045267;28;20043;-61
2022/06/13 08:44:00;;;;;;;4.18;2.33;;;;;;;;;;5045617;28;20095;-62
2022/06/13 08:46:40;;;;;;;4.95;2.30;;;;;;;;;;5045976;28;20637;-60
2022/06/13 08:49:07;;;;;;;3.58;2.17;;;;;;;;;;5046719;28;20386;-61
2022/06/13 08:51:38;;;;;;;4.22;2.10;;;;;;;;;;5044847;28;20045;-61
2022/06/13 08:54:08;;;;;;;3.88;2.20;;;;;;;;;;5046341;28;20048;-61
2022/06/13 08:56:36;;;;;;;4.35;2.55;;;;;;;;;;5045551;28;20511;-61
2022/06/13 08:59:34;;;;;;;5.30;2.78;;;;;;;;;;5047629;28;20121;-62
2022/06/13 09:02:06;;;;;;;4.40;2.78;;;;;;;;;;5044505;28;20078;-61
2022/06/13 09:04:37;;;;;;;4.20;2.65;;;;;;;;;;5045396;28;20091;-62
2022/06/13 09:07:04;;;;;;;5.45;3.17;;;;;;;;;;5049034;28;20128;-61
2022/06/13 09:09:38;;;;;;;4.93;3.22;;;;;;;;;;5046205;28;20075;-63
2022/06/13 09:12:08;;;;;;;5.22;3.40;;;;;;;;;;5043368;28;20756;-62
2022/06/13 09:14:43;;;;;;;5.95;3.33;;;;;;;;;;5044596;28;20127;-62
2022/06/13 09:17:10;;;;;;;4.57;3.00;;;;;;;;;;5044065;28;20405;-62
2022/06/13 09:19:50;;;;;;;5.03;3.15;;;;;;;;;;5042030;28;20417;-62
2022/06/13 09:22:28;;;;;;;5.95;3.50;;;;;;;;;;5044452;28;20044;-62
2022/06/13 09:25:07;;;;;;;4.45;2.90;;;;;;;;;;5040717;28;20099;-61
2022/06/13 09:27:38;;;;;;;5.18;3.05;;;;;;;;;;5041887;28;20481;-61
2022/06/13 09:30:16;;;;;;;5.07;3.28;;;;;;;;;;5043985;28;20102;-61
2022/06/13 09:32:48;;;;;;;4.65;3.17;;;;;;;;;;5043879;28;20036;-61
2022/06/13 09:35:17;;;;;;;6.00;3.17;;;;;;;;;;5045421;28;20915;-61
2022/06/13 09:37:48;;;;;;;5.07;3.05;;;;;;;;;;5044322;28;20038;-61
2022/06/13 09:40:22;;;;;;;5.65;2.75;;;;;;;;;;5044886;28;20282;-61
2022/06/13 09:42:59;;;;;;;4.32;2.67;;;;;;;;;;5043533;28;20635;-61
2022/06/13 09:45:52;;;;;;;4.88;2.67;;;;;;;;;;5041978;28;20045;-62
2022/06/13 09:48:28;;;;;;;4.53;2.65;;;;;;;;;;5030331;28;20077;-61
2022/06/13 09:51:05;;;;;;;4.45;2.42;;;;;;;;;;5042163;28;20120;-60
2022/06/13 09:53:52;;;;;;;4.20;2.60;;;;;;;;;;5043167;28;20052;-60
2022/06/13 09:56:31;;;;;;;4.10;2.40;;;;;;;;;;5044010;28;20107;-60
2022/06/13 09:59:06;;;;;;;4.65;2.38;;;;;;;;;;5041908;28;20067;-61
2022/06/13 10:01:51;;;;;;;5.32;2.78;;;;;;;;;;5043817;28;20079;-62
2022/06/13 10:04:26;;;;;;;4.57;2.22;;;;;;;;;;5044477;28;20080;-61
2022/06/13 10:06:56;;;;;;;4.55;2.83;;;;;;;;;;5043878;28;20069;-61
2022/06/13 10:09:28;;;;;;;4.60;2.50;;;;;;;;;;5043119;28;20065;-61
2022/06/13 10:11:55;;;;;;;4.60;2.77;;;;;;;;;;5043860;28;20477;-60
2022/06/13 10:14:24;;;;;;;4.38;2.45;;;;;;;;;;5042704;28;20734;-61
2022/06/13 10:16:54;;;;;;;4.93;2.80;;;;;;;;;;5042369;28;20044;-61
2022/06/13 10:19:38;;;;;;;4.43;2.63;;;;;;;;;;5042239;28;20504;-60
2022/06/13 10:22:12;;;;;;;5.25;2.55;;;;;;;;;;5042936;28;20368;-61
2022/06/13 10:24:58;;;;;;;4.63;3.00;;;;;;;;;;5042154;28;20104;-62
2022/06/13 10:27:57;;;;;;;4.47;2.67;;;;;;;;;;5041926;28;20059;-62
2022/06/13 10:30:42;;;;;;;4.68;2.55;;;;;;;;;;4991344;28;20132;-61
2022/06/13 10:33:16;;;;;;;5.15;2.67;;;;;;;;;;5042340;28;20161;-61
2022/06/13 10:35:49;;;;;;;4.38;2.53;;;;;;;;;;5041258;28;20049;-60
2022/06/13 10:38:35;;;;;;;4.20;2.55;;;;;;;;;;5042636;28;20048;-60
2022/06/13 10:41:02;;;;;;;4.20;2.30;;;;;;;;;;5042300;28;20397;-61
2022/06/13 10:43:30;;;;;;;4.38;2.60;;;;;;;;;;5042323;28;20081;-61
2022/06/13 10:45:57;;;;;;;4.10;2.28;;;;;;;;;;5023658;28;20045;-61
2022/06/13 10:48:29;;;;;;;3.88;2.10;;;;;;;;;;5041563;28;20043;-61
2022/06/13 10:50:57;;;;;;;4.63;2.50;;;;;;;;;;5039797;28;20156;-61
2022/06/13 10:53:41;;;;;;;4.55;2.25;;;;;;;;;;5041932;28;20426;-61
2022/06/13 10:56:11;;;;;;;4.13;2.22;;;;;;;;;;5042334;28;20400;-60
2022/06/13 10:58:46;;;;;;;3.75;2.03;;;;;;;;;;5042284;28;20090;-61
2022/06/13 11:01:29;;;;;;;4.18;2.30;;;;;;;;;;5044503;28;20044;-61
2022/06/13 11:04:07;;;;;;;4.00;2.13;;;;;;;;;;5043715;28;20094;-60
2022/06/13 11:06:45;;;;;;;4.95;2.45;;;;;;;;;;5047993;28;20390;-61
2022/06/13 11:09:30;;;;;;;5.30;2.30;;;;;;;;;;5048173;28;20033;-61
2022/06/13 11:11:59;;;;;;;3.17;1.50;;;;;;;;;;5046698;28;20785;-62
2022/06/13 11:14:28;;;;;;;3.88;1.83;;;;;;;;;;5045373;28;20055;-61
2022/06/13 11:22:45;;;;;;;3.70;1.55;;;;;;;;;;5046946;28;20086;-62
2022/06/13 11:25:23;;;;;;;3.40;1.60;;;;;;;;;;5046209;28;20051;-62
2022/06/13 11:28:01;;;;;;;3.20;1.50;;;;;;;;;;5045473;28;20055;-61
2022/06/13 11:30:28;;;;;;;3.47;1.52;;;;;;;;;;5044972;28;20041;-64
2022/06/13 11:33:01;;;;;;;3.33;1.45;;;;;;;;;;5044786;28;20068;-63
2022/06/13 11:35:37;;;;;;;4.63;1.80;;;;;;;;;;5043647;28;20044;-65
2022/06/13 11:38:22;;;;;;;4.95;1.65;;;;;;;;;;5046092;28;20492;-64
2022/06/13 11:41:01;;;;;;;3.25;1.58;;;;;;;;;;5044600;28;20169;-65
2022/06/13 11:43:42;;;;;;;7.65;1.67;;;;;;;;;;5045107;28;20067;-65
2022/06/13 11:46:16;;;;;;;3.45;1.65;;;;;;;;;;5045866;28;20056;-65
2022/06/13 11:48:49;;;;;;;2.40;0.90;;;;;;;;;;5045173;28;20032;-66
2022/06/13 11:51:15;;;;;;;;;;;;;;;;;;5046330;28;20057;-65
2022/06/13 11:53:42;;;;;;;2.38;0.95;;;;;;;;;;5041655;28;19946;-65
2022/06/13 11:56:11;;;;;;;3.05;1.27;;;;;;;;;;5026936;28;20774;-65
2022/06/13 11:58:46;;;;;;;3.63;1.40;;;;;;;;;;5044622;28;20131;-68
2022/06/13 12:01:17;;;;;;;2.70;1.30;;;;;;;;;;5046169;28;20084;-66
2022/06/13 12:03:49;;;;;;;2.50;1.20;;;;;;;;;;5035115;28;20086;-63
2022/06/13 12:06:17;;;;;;;4.55;1.27;;;;;;;;;;5045760;28;20045;-63
2022/06/13 12:08:49;;;;;;;3.40;1.30;;;;;;;;;;5031495;28;20044;-62
2022/06/13 12:11:16;;;;;;;3.60;1.05;;;;;;;;;;5044578;28;20041;-62
2022/06/13 12:13:44;;;;;;;3.33;1.30;;;;;;;;;;5044774;28;20465;-63
2022/06/13 12:16:10;;;;;;;2.60;1.25;;;;;;;;;;5043391;28;20549;-62
2022/06/13 12:18:43;;;;;;;4.13;1.33;;;;;;;;;;5043897;28;20135;-62
2022/06/13 12:21:33;;;;;;;2.90;1.42;;;;;;;;;;5046021;28;20049;-63
2022/06/13 12:24:23;;;;;;;3.05;1.40;;;;;;;;;;5029730;28;20493;-63
2022/06/13 12:27:02;;;;;;;3.97;1.20;;;;;;;;;;5034125;28;20048;-62
2022/06/13 12:29:39;;;;;;;3.03;1.38;;;;;;;;;;5044717;28;20041;-67
2022/06/13 12:32:15;;;;;;;3.60;1.60;;;;;;;;;;5046512;28;20075;-63
2022/06/13 12:35:03;;;;;;;2.83;1.40;;;;;;;;;;5042915;28;20041;-62
2022/06/13 12:37:39;;;;;;;4.20;1.05;;;;;;;;;;5043908;28;20044;-62
2022/06/13 12:40:31;;;;;;;2.80;1.10;;;;;;;;;;5043085;28;20045;-62
2022/06/13 12:43:16;;;;;;;2.50;1.08;;;;;;;;;;5000993;28;20136;-63
2022/06/13 12:45:50;;;;;;;3.63;1.30;;;;;;;;;;5043093;28;20110;-62
2022/06/13 12:48:19;;;;;;;3.70;1.50;;;;;;;;;;5045943;28;20105;-62
2022/06/13 12:51:15;;;;;;;4.15;1.40;;;;;;;;;;5044116;28;20045;-62
2022/06/13 12:53:42;;;;;;;2.80;1.10;;;;;;;;;;5030722;28;20064;-63
2022/06/13 12:56:19;;;;;;;3.05;1.48;;;;;;;;;;5045002;28;20171;-64
2022/06/13 12:58:51;;;;;;;5.18;1.35;;;;;;;;;;5034086;28;20904;-63
2022/06/13 13:01:22;;;;;;;4.13;1.53;;;;;;;;;;5042726;28;20037;-63
2022/06/13 13:04:07;;;;;;;3.70;1.67;;;;;;;;;;5024487;28;20298;-63
2022/06/13 13:07:00;;;;;;;3.22;1.35;;;;;;;;;;5041393;28;20040;-61
2022/06/13 13:09:37;;;;;;;3.47;1.60;;;;;;;;;;5041891;28;20041;-62
2022/06/13 13:12:03;;;;;;;3.65;1.30;;;;;;;;;;5042124;28;20044;-63
2022/06/13 13:14:50;;;;;;;4.03;1.40;;;;;;;;;;5042732;28;20037;-62
2022/06/13 13:17:29;;;;;;;3.95;1.70;;;;;;;;;;5044233;28;20045;-62
2022/06/13 13:19:55;;;;;;;4.13;1.58;;;;;;;;;;5043469;28;20051;-63
2022/06/13 13:22:22;;;;;;;3.42;1.70;;;;;;;;;;5040856;28;20037;-62
2022/06/13 13:24:52;;;;;;;3.75;1.38;;;;;;;;;;5039915;28;20401;-63
2022/06/13 13:27:19;;;;;;;3.72;1.80;;;;;;;;;;5043160;28;20037;-62
2022/06/13 13:30:05;;;;;;;5.93;1.42;;;;;;;;;;5042646;28;20091;-62
2022/06/13 13:32:54;;;;;;;4.20;1.58;;;;;;;;;;5043314;28;20678;-62
2022/06/13 13:35:36;;;;;;;3.53;1.75;;;;;;;;;;5042988;28;20036;-63
2022/06/13 13:38:12;;;;;;;6.63;1.85;;;;;;;;;;5043818;28;20037;-62
2022/06/13 13:40:43;;;;;;;4.57;2.08;;;;;;;;;;5042817;28;20103;-62
2022/06/13 13:43:16;;;;;;;3.60;1.52;;;;;;;;;;5043765;28;20361;-62
2022/06/13 13:45:48;;;;;;;3.83;1.70;;;;;;;;;;5040862;28;20056;-64
2022/06/13 13:48:41;;;;;;;3.10;1.50;;;;;;;;;;5043082;28;20124;-62
2022/06/13 13:51:22;;;;;;;5.50;2.03;;;;;;;;;;4997480;28;20037;-62
2022/06/13 13:53:58;;;;;;;4.20;2.10;;;;;;;;;;5032572;28;20040;-62
2022/06/13 13:56:30;;;;;;;4.88;1.92;;;;;;;;;;5043046;28;20133;-62
2022/06/13 13:58:58;;;;;;;3.65;1.95;;;;;;;;;;5043720;28;20037;-62
2022/06/13 14:01:43;;;;;;;3.97;1.90;;;;;;;;;;5042550;28;20037;-62
2022/06/13 14:04:13;;;;;;;4.07;2.13;;;;;;;;;;5041831;28;20052;-62
2022/06/13 14:06:43;;;;;;;3.95;2.08;;;;;;;;;;5042975;28;20910;-63
2022/06/13 14:09:10;;;;;;;3.90;2.03;;;;;;;;;;5043509;28;20068;-62
2022/06/13 14:11:55;;;;;;;4.88;2.00;;;;;;;;;;5042526;28;20558;-62
2022/06/13 14:14:22;;;;;;;4.38;2.05;;;;;;;;;;5041039;28;20513;-62
2022/06/13 14:16:49;;;;;;;6.35;2.10;;;;;;;;;;5042880;28;20543;-62
2022/06/13 14:19:20;;;;;;;5.20;2.15;;;;;;;;;;5043554;28;20045;-61
2022/06/13 14:21:50;;;;;;;4.43;2.10;;;;;;;;;;5042130;28;20811;-62
2022/06/13 14:24:22;;;;;;;4.63;2.30;;;;;;;;;;5041914;28;20144;-63
2022/06/13 14:26:53;;;;;;;4.57;2.10;;;;;;;;;;5041147;28;20110;-62
2022/06/13 14:29:29;;;;;;;3.90;2.13;;;;;;;;;;5043057;28;20033;-62
2022/06/13 14:31:58;;;;;;;4.93;2.42;;;;;;;;;;5042493;28;20801;-62
2022/06/13 14:35:12;;;;;;;7.07;2.15;;;;;;;;;;5041539;28;20170;-62
2022/06/13 14:37:46;;;;;;;3.55;1.80;;;;;;;;;;5016588;28;20079;-62
2022/06/13 14:40:34;;;;;;;4.97;2.00;;;;;;;;;;5030823;28;20235;-63
2022/06/13 14:43:00;;;;;;;4.82;2.10;;;;;;;;;;5025942;28;20064;-62
2022/06/13 14:45:47;;;;;;;4.88;2.53;;;;;;;;;;5047510;28;20045;-62
2022/06/13 14:48:18;;;;;;;4.30;2.00;;;;;;;;;;5046789;28;20037;-62
2022/06/13 14:50:47;;;;;;;4.88;2.15;;;;;;;;;;5028379;28;20141;-63
2022/06/13 14:53:26;;;;;;;5.88;2.22;;;;;;;;;;5045356;28;20095;-62
2022/06/13 14:56:07;;;;;;;3.60;1.90;;;;;;;;;;5044308;28;20039;-62
2022/06/13 14:58:44;;;;;;;5.45;2.42;;;;;;;;;;5046238;28;20067;-62
2022/06/13 15:01:22;;;;;;;6.80;2.30;;;;;;;;;;5045449;28;20041;-63
2022/06/13 15:04:00;;;;;;;4.53;2.03;;;;;;;;;;5045222;28;20548;-62
2022/06/13 15:06:28;;;;;;;4.10;1.95;;;;;;;;;;5044393;28;20045;-63
2022/06/13 15:09:04;;;;;;;4.07;2.10;;;;;;;;;;5044634;28;20037;-63
2022/06/13 15:11:31;;;;;;;3.85;2.22;;;;;;;;;;5044721;28;20044;-63
2022/06/13 15:13:58;;;;;;;4.07;2.00;;;;;;;;;;5044133;28;20041;-62
2022/06/13 15:16:28;;;;;;;3.83;1.98;;;;;;;;;;5044847;28;20051;-62
2022/06/13 15:19:03;;;;;;;3.60;1.92;;;;;;;;;;5044640;28;20154;-63
2022/06/13 15:21:31;;;;;;;3.20;1.52;;;;;;;;;;5026527;28;20124;-62
2022/06/13 15:23:59;;;;;;;3.70;2.07;;;;;;;;;;4972353;28;2057934;-63
2022/06/13 15:26:28;;;;;;;3.58;1.90;;;;;;;;;;5044817;28;20036;-62
2022/06/13 15:29:15;;;;;;;4.05;2.00;;;;;;;;;;5044527;28;20393;-62
2022/06/13 15:31:46;;;;;;;3.58;1.92;;;;;;;;;;5044580;28;20075;-62
2022/06/13 15:34:15;;;;;;;3.75;1.95;;;;;;;;;;5044552;28;20033;-62
2022/06/13 15:36:43;;;;;;;3.83;2.15;;;;;;;;;;5026947;28;20527;-62